LRD weather

Laredo International Airport
Laredo, Texas, United States

Public forecast

Using degrees Fahrenheit for public forecast. Weather courtesy of forecast.io.

Current aviation weather report (METAR) for Laredo International Airport

Retrieved 2020/07/08 04:56 UTC (22 minutes ago):

KLRD 080456Z AUTO 14013G21KT 10SM CLR 31/24 A2988 RMK AO2 SLP113 T03110239 403940272 PNO

Aviation forecast (TAF) for Laredo International Airport

Retrieved 2020-07-08 00:42 UTC (5 hours ago):

TAF KLRD 072339Z 0800/0824 14015G21KT P6SM SCT070 FM080700 15011KT P6SM SCT020 TEMPO 0808/0812 BKN020 FM081500 16012G18KT P6SM SCT030 FM082200 14015G21KT P6SM SCT070